sensor_id;sensor_type;location;lat;lon;timestamp;temperature;humidity
19555;DHT22;9924;50.828;6.440;2023-08-06T00:00:21;15.60;99.90
19555;DHT22;9924;50.828;6.440;2023-08-06T00:02:47;15.60;99.90
19555;DHT22;9924;50.828;6.440;2023-08-06T00:05:13;15.60;99.90
19555;DHT22;9924;50.828;6.440;2023-08-06T00:07:38;15.60;99.90
19555;DHT22;9924;50.828;6.440;2023-08-06T00:10:05;15.60;99.90
19555;DHT22;9924;50.828;6.440;2023-08-06T00:12:30;15.70;99.90
19555;DHT22;9924;50.828;6.440;2023-08-06T00:14:56;15.70;99.90
19555;DHT22;9924;50.828;6.440;2023-08-06T00:17:22;15.70;99.90
19555;DHT22;9924;50.828;6.440;2023-08-06T00:19:48;15.70;99.90
19555;DHT22;9924;50.828;6.440;2023-08-06T00:22:13;15.80;99.90
19555;DHT22;9924;50.828;6.440;2023-08-06T00:24:39;15.80;99.90
19555;DHT22;9924;50.828;6.440;2023-08-06T00:27:05;15.80;99.90
19555;DHT22;9924;50.828;6.440;2023-08-06T00:29:31;15.80;99.90
19555;DHT22;9924;50.828;6.440;2023-08-06T00:31:56;15.80;99.90
19555;DHT22;9924;50.828;6.440;2023-08-06T00:34:22;15.70;99.90
19555;DHT22;9924;50.828;6.440;2023-08-06T00:36:48;15.70;99.90
19555;DHT22;9924;50.828;6.440;2023-08-06T00:39:13;15.60;99.90
19555;DHT22;9924;50.828;6.440;2023-08-06T00:41:39;15.50;99.90
19555;DHT22;9924;50.828;6.440;2023-08-06T00:44:05;15.50;99.90
19555;DHT22;9924;50.828;6.440;2023-08-06T00:46:32;15.50;99.90
19555;DHT22;9924;50.828;6.440;2023-08-06T00:48:59;15.50;99.90
19555;DHT22;9924;50.828;6.440;2023-08-06T00:51:25;15.40;99.90
19555;DHT22;9924;50.828;6.440;2023-08-06T00:53:52;15.40;99.90
19555;DHT22;9924;50.828;6.440;2023-08-06T00:56:19;15.40;99.90
19555;DHT22;9924;50.828;6.440;2023-08-06T00:58:45;15.30;99.90
19555;DHT22;9924;50.828;6.440;2023-08-06T01:01:12;15.20;99.90
19555;DHT22;9924;50.828;6.440;2023-08-06T01:03:37;15.20;99.90
19555;DHT22;9924;50.828;6.440;2023-08-06T01:06:04;15.20;99.90
19555;DHT22;9924;50.828;6.440;2023-08-06T01:11:42;15.20;99.90
19555;DHT22;9924;50.828;6.440;2023-08-06T01:14:27;15.20;99.90
19555;DHT22;9924;50.828;6.440;2023-08-06T01:16:54;15.20;99.90
19555;DHT22;9924;50.828;6.440;2023-08-06T01:19:21;15.20;99.90
19555;DHT22;9924;50.828;6.440;2023-08-06T01:21:47;15.30;99.90
19555;DHT22;9924;50.828;6.440;2023-08-06T01:24:13;15.20;99.90
19555;DHT22;9924;50.828;6.440;2023-08-06T01:31:39;15.30;99.90
19555;DHT22;9924;50.828;6.440;2023-08-06T01:34:13;15.40;99.90
19555;DHT22;9924;50.828;6.440;2023-08-06T01:36:40;15.40;99.90
19555;DHT22;9924;50.828;6.440;2023-08-06T01:39:06;15.40;99.90
19555;DHT22;9924;50.828;6.440;2023-08-06T01:41:31;15.40;99.90
19555;DHT22;9924;50.828;6.440;2023-08-06T01:43:57;15.50;99.90
19555;DHT22;9924;50.828;6.440;2023-08-06T01:46:23;15.50;99.90
19555;DHT22;9924;50.828;6.440;2023-08-06T01:48:49;15.60;99.90
19555;DHT22;9924;50.828;6.440;2023-08-06T01:51:14;15.60;99.90
19555;DHT22;9924;50.828;6.440;2023-08-06T01:53:40;15.60;99.90
19555;DHT22;9924;50.828;6.440;2023-08-06T01:56:06;15.60;99.90
19555;DHT22;9924;50.828;6.440;2023-08-06T01:58:32;15.70;99.90
19555;DHT22;9924;50.828;6.440;2023-08-06T02:01:22;15.70;99.90
19555;DHT22;9924;50.828;6.440;2023-08-06T02:03:48;15.80;99.90
19555;DHT22;9924;50.828;6.440;2023-08-06T02:06:14;15.80;99.90
19555;DHT22;9924;50.828;6.440;2023-08-06T02:08:39;15.80;99.90
19555;DHT22;9924;50.828;6.440;2023-08-06T02:11:05;15.80;99.90
19555;DHT22;9924;50.828;6.440;2023-08-06T02:13:31;15.80;99.90
19555;DHT22;9924;50.828;6.440;2023-08-06T02:15:56;15.80;99.90
19555;DHT22;9924;50.828;6.440;2023-08-06T02:18:22;15.90;99.90
19555;DHT22;9924;50.828;6.440;2023-08-06T02:20:58;15.80;99.90
19555;DHT22;9924;50.828;6.440;2023-08-06T02:23:25;15.90;99.90
19555;DHT22;9924;50.828;6.440;2023-08-06T02:26:00;15.90;99.90
19555;DHT22;9924;50.828;6.440;2023-08-06T02:28:27;15.90;99.90
19555;DHT22;9924;50.828;6.440;2023-08-06T02:30:53;15.90;99.90
19555;DHT22;9924;50.828;6.440;2023-08-06T02:33:18;15.90;99.90
19555;DHT22;9924;50.828;6.440;2023-08-06T02:35:44;15.90;99.90
19555;DHT22;9924;50.828;6.440;2023-08-06T02:38:10;15.90;99.90
19555;DHT22;9924;50.828;6.440;2023-08-06T02:40:36;16.00;99.90
19555;DHT22;9924;50.828;6.440;2023-08-06T02:43:01;16.00;99.90
19555;DHT22;9924;50.828;6.440;2023-08-06T02:45:29;16.00;99.90
19555;DHT22;9924;50.828;6.440;2023-08-06T02:47:54;16.00;99.90
19555;DHT22;9924;50.828;6.440;2023-08-06T02:50:20;16.00;99.90
19555;DHT22;9924;50.828;6.440;2023-08-06T02:52:46;16.00;99.90
19555;DHT22;9924;50.828;6.440;2023-08-06T02:55:11;16.00;99.90
19555;DHT22;9924;50.828;6.440;2023-08-06T02:57:37;16.00;99.90
19555;DHT22;9924;50.828;6.440;2023-08-06T03:00:03;16.00;99.90
19555;DHT22;9924;50.828;6.440;2023-08-06T03:02:29;16.00;99.90
19555;DHT22;9924;50.828;6.440;2023-08-06T03:04:55;15.90;99.90
19555;DHT22;9924;50.828;6.440;2023-08-06T03:07:21;15.80;99.90
19555;DHT22;9924;50.828;6.440;2023-08-06T03:09:47;15.80;99.90
19555;DHT22;9924;50.828;6.440;2023-08-06T03:12:12;15.70;99.90
19555;DHT22;9924;50.828;6.440;2023-08-06T03:14:38;15.70;99.90
19555;DHT22;9924;50.828;6.440;2023-08-06T03:17:04;15.70;99.90
19555;DHT22;9924;50.828;6.440;2023-08-06T03:19:30;15.70;99.90
19555;DHT22;9924;50.828;6.440;2023-08-06T03:21:55;15.70;99.90
19555;DHT22;9924;50.828;6.440;2023-08-06T03:24:21;15.70;99.90
19555;DHT22;9924;50.828;6.440;2023-08-06T03:26:47;15.60;99.90
19555;DHT22;9924;50.828;6.440;2023-08-06T03:29:13;15.60;99.90
19555;DHT22;9924;50.828;6.440;2023-08-06T03:31:38;15.60;99.90
19555;DHT22;9924;50.828;6.440;2023-08-06T03:34:04;15.50;99.90
19555;DHT22;9924;50.828;6.440;2023-08-06T03:36:30;15.50;99.90
19555;DHT22;9924;50.828;6.440;2023-08-06T03:38:56;15.50;99.90
19555;DHT22;9924;50.828;6.440;2023-08-06T03:41:22;15.50;99.90
19555;DHT22;9924;50.828;6.440;2023-08-06T03:43:48;15.50;99.90
19555;DHT22;9924;50.828;6.440;2023-08-06T03:46:13;15.50;99.90
19555;DHT22;9924;50.828;6.440;2023-08-06T03:48:39;15.50;99.90
19555;DHT22;9924;50.828;6.440;2023-08-06T03:51:05;15.50;99.90
19555;DHT22;9924;50.828;6.440;2023-08-06T03:53:30;15.50;99.90
19555;DHT22;9924;50.828;6.440;2023-08-06T03:55:56;15.50;99.90
19555;DHT22;9924;50.828;6.440;2023-08-06T03:58:25;15.50;99.90
19555;DHT22;9924;50.828;6.440;2023-08-06T04:00:59;15.50;99.90
19555;DHT22;9924;50.828;6.440;2023-08-06T04:03:25;15.50;99.90
19555;DHT22;9924;50.828;6.440;2023-08-06T04:05:50;15.40;99.90
19555;DHT22;9924;50.828;6.440;2023-08-06T04:08:16;15.30;99.90
19555;DHT22;9924;50.828;6.440;2023-08-06T04:10:42;15.30;99.90
19555;DHT22;9924;50.828;6.440;2023-08-06T04:13:07;15.30;99.90
19555;DHT22;9924;50.828;6.440;2023-08-06T04:15:34;15.30;99.90
19555;DHT22;9924;50.828;6.440;2023-08-06T04:18:00;15.30;99.90
19555;DHT22;9924;50.828;6.440;2023-08-06T04:20:26;15.30;99.90
19555;DHT22;9924;50.828;6.440;2023-08-06T04:22:54;15.30;99.90
19555;DHT22;9924;50.828;6.440;2023-08-06T04:25:20;15.30;99.90
19555;DHT22;9924;50.828;6.440;2023-08-06T04:27:47;15.30;99.90
19555;DHT22;9924;50.828;6.440;2023-08-06T04:30:13;15.30;99.90
19555;DHT22;9924;50.828;6.440;2023-08-06T04:32:39;15.30;99.90
19555;DHT22;9924;50.828;6.440;2023-08-06T04:35:05;15.30;99.90
19555;DHT22;9924;50.828;6.440;2023-08-06T04:37:32;15.20;99.90
19555;DHT22;9924;50.828;6.440;2023-08-06T04:39:57;15.20;99.90
19555;DHT22;9924;50.828;6.440;2023-08-06T04:42:23;15.20;99.90
19555;DHT22;9924;50.828;6.440;2023-08-06T04:44:49;15.20;99.90
19555;DHT22;9924;50.828;6.440;2023-08-06T04:47:15;15.20;99.90
19555;DHT22;9924;50.828;6.440;2023-08-06T04:49:41;15.20;99.90
19555;DHT22;9924;50.828;6.440;2023-08-06T04:52:07;15.20;99.90
19555;DHT22;9924;50.828;6.440;2023-08-06T04:54:33;15.20;99.90
19555;DHT22;9924;50.828;6.440;2023-08-06T04:56:59;15.20;99.90
19555;DHT22;9924;50.828;6.440;2023-08-06T04:59:25;15.20;99.90
19555;DHT22;9924;50.828;6.440;2023-08-06T05:01:50;15.20;99.90
19555;DHT22;9924;50.828;6.440;2023-08-06T05:04:16;15.20;99.90
19555;DHT22;9924;50.828;6.440;2023-08-06T05:06:42;15.20;99.90
19555;DHT22;9924;50.828;6.440;2023-08-06T05:09:07;15.20;99.90
19555;DHT22;9924;50.828;6.440;2023-08-06T05:11:33;15.20;99.90
19555;DHT22;9924;50.828;6.440;2023-08-06T05:13:59;15.30;99.90
19555;DHT22;9924;50.828;6.440;2023-08-06T05:16:25;15.30;99.90
19555;DHT22;9924;50.828;6.440;2023-08-06T05:18:50;15.30;99.90
19555;DHT22;9924;50.828;6.440;2023-08-06T05:21:16;15.30;99.90
19555;DHT22;9924;50.828;6.440;2023-08-06T05:23:42;15.30;99.90
19555;DHT22;9924;50.828;6.440;2023-08-06T05:26:08;15.30;99.90
19555;DHT22;9924;50.828;6.440;2023-08-06T05:28:34;15.20;99.90
19555;DHT22;9924;50.828;6.440;2023-08-06T05:31:04;15.20;99.90
19555;DHT22;9924;50.828;6.440;2023-08-06T05:33:30;15.30;99.90
19555;DHT22;9924;50.828;6.440;2023-08-06T05:35:56;15.30;99.90
19555;DHT22;9924;50.828;6.440;2023-08-06T05:38:22;15.30;99.90
19555;DHT22;9924;50.828;6.440;2023-08-06T05:40:47;15.30;99.90
19555;DHT22;9924;50.828;6.440;2023-08-06T05:43:14;15.30;99.90
19555;DHT22;9924;50.828;6.440;2023-08-06T05:45:44;15.30;99.90
19555;DHT22;9924;50.828;6.440;2023-08-06T05:48:10;15.20;99.90
19555;DHT22;9924;50.828;6.440;2023-08-06T05:50:36;15.30;99.90
19555;DHT22;9924;50.828;6.440;2023-08-06T05:53:02;15.30;99.90
19555;DHT22;9924;50.828;6.440;2023-08-06T05:55:27;15.40;99.90
19555;DHT22;9924;50.828;6.440;2023-08-06T05:57:53;15.40;99.90
19555;DHT22;9924;50.828;6.440;2023-08-06T06:00:20;15.50;99.90
19555;DHT22;9924;50.828;6.440;2023-08-06T06:02:46;15.60;99.90
19555;DHT22;9924;50.828;6.440;2023-08-06T06:05:11;15.60;99.90
19555;DHT22;9924;50.828;6.440;2023-08-06T06:07:37;15.70;99.90
19555;DHT22;9924;50.828;6.440;2023-08-06T06:10:03;15.70;99.90
19555;DHT22;9924;50.828;6.440;2023-08-06T06:12:29;15.70;99.90
19555;DHT22;9924;50.828;6.440;2023-08-06T06:14:54;15.80;99.90
19555;DHT22;9924;50.828;6.440;2023-08-06T06:17:20;15.70;99.90
19555;DHT22;9924;50.828;6.440;2023-08-06T06:19:46;15.70;99.90
19555;DHT22;9924;50.828;6.440;2023-08-06T06:22:12;15.90;99.90
19555;DHT22;9924;50.828;6.440;2023-08-06T06:24:37;15.90;99.90
19555;DHT22;9924;50.828;6.440;2023-08-06T06:27:03;15.90;99.90
19555;DHT22;9924;50.828;6.440;2023-08-06T06:29:29;16.10;99.90
19555;DHT22;9924;50.828;6.440;2023-08-06T06:31:55;16.10;99.90
19555;DHT22;9924;50.828;6.440;2023-08-06T06:34:21;16.10;99.90
19555;DHT22;9924;50.828;6.440;2023-08-06T06:36:47;16.00;99.90
19555;DHT22;9924;50.828;6.440;2023-08-06T06:39:13;16.00;99.90
19555;DHT22;9924;50.828;6.440;2023-08-06T06:41:39;16.00;99.90
19555;DHT22;9924;50.828;6.440;2023-08-06T06:44:05;15.90;99.90
19555;DHT22;9924;50.828;6.440;2023-08-06T06:46:31;15.80;99.90
19555;DHT22;9924;50.828;6.440;2023-08-06T06:48:57;15.80;99.90
19555;DHT22;9924;50.828;6.440;2023-08-06T06:51:23;16.00;99.90
19555;DHT22;9924;50.828;6.440;2023-08-06T06:53:48;16.10;99.90
19555;DHT22;9924;50.828;6.440;2023-08-06T06:56:14;16.10;99.90
19555;DHT22;9924;50.828;6.440;2023-08-06T06:58:40;16.10;99.90
19555;DHT22;9924;50.828;6.440;2023-08-06T07:01:07;16.00;99.90
19555;DHT22;9924;50.828;6.440;2023-08-06T07:03:33;16.00;99.90
19555;DHT22;9924;50.828;6.440;2023-08-06T07:05:59;16.00;99.90
19555;DHT22;9924;50.828;6.440;2023-08-06T07:08:25;15.90;99.90
19555;DHT22;9924;50.828;6.440;2023-08-06T07:11:00;16.00;99.90
19555;DHT22;9924;50.828;6.440;2023-08-06T07:13:27;15.90;99.90
19555;DHT22;9924;50.828;6.440;2023-08-06T07:15:54;15.80;99.90
19555;DHT22;9924;50.828;6.440;2023-08-06T07:18:20;15.80;99.90
19555;DHT22;9924;50.828;6.440;2023-08-06T07:20:50;15.70;99.90
19555;DHT22;9924;50.828;6.440;2023-08-06T07:23:16;15.80;99.90
19555;DHT22;9924;50.828;6.440;2023-08-06T07:25:42;15.80;99.90
19555;DHT22;9924;50.828;6.440;2023-08-06T07:28:09;15.80;99.90
19555;DHT22;9924;50.828;6.440;2023-08-06T07:30:38;15.80;99.90
19555;DHT22;9924;50.828;6.440;2023-08-06T07:33:04;15.80;99.90
19555;DHT22;9924;50.828;6.440;2023-08-06T07:35:30;15.80;99.90
19555;DHT22;9924;50.828;6.440;2023-08-06T07:37:56;15.70;99.90
19555;DHT22;9924;50.828;6.440;2023-08-06T07:40:21;15.70;99.90
19555;DHT22;9924;50.828;6.440;2023-08-06T07:42:47;15.70;99.90
19555;DHT22;9924;50.828;6.440;2023-08-06T07:45:14;15.60;99.90
19555;DHT22;9924;50.828;6.440;2023-08-06T07:47:40;15.60;99.90
19555;DHT22;9924;50.828;6.440;2023-08-06T07:50:06;15.60;99.90
19555;DHT22;9924;50.828;6.440;2023-08-06T07:52:33;15.60;99.90
19555;DHT22;9924;50.828;6.440;2023-08-06T07:54:59;15.60;99.90
19555;DHT22;9924;50.828;6.440;2023-08-06T07:57:25;15.60;99.90
19555;DHT22;9924;50.828;6.440;2023-08-06T07:59:51;15.60;99.90
19555;DHT22;9924;50.828;6.440;2023-08-06T08:02:19;15.60;99.90
19555;DHT22;9924;50.828;6.440;2023-08-06T08:04:45;15.70;99.90
19555;DHT22;9924;50.828;6.440;2023-08-06T08:07:13;15.70;99.90
19555;DHT22;9924;50.828;6.440;2023-08-06T08:09:38;15.70;99.90
19555;DHT22;9924;50.828;6.440;2023-08-06T08:12:04;15.70;99.90
19555;DHT22;9924;50.828;6.440;2023-08-06T08:14:30;15.60;99.90
19555;DHT22;9924;50.828;6.440;2023-08-06T08:17:03;15.60;99.90
19555;DHT22;9924;50.828;6.440;2023-08-06T08:19:29;15.50;99.90
19555;DHT22;9924;50.828;6.440;2023-08-06T08:21:55;15.40;99.90
19555;DHT22;9924;50.828;6.440;2023-08-06T08:24:21;15.40;99.90
19555;DHT22;9924;50.828;6.440;2023-08-06T08:26:50;15.30;99.90
19555;DHT22;9924;50.828;6.440;2023-08-06T08:29:16;15.40;99.90
19555;DHT22;9924;50.828;6.440;2023-08-06T08:31:42;15.40;99.90
19555;DHT22;9924;50.828;6.440;2023-08-06T08:34:09;15.50;99.90
19555;DHT22;9924;50.828;6.440;2023-08-06T08:36:34;15.40;99.90
19555;DHT22;9924;50.828;6.440;2023-08-06T08:39:00;15.40;99.90
19555;DHT22;9924;50.828;6.440;2023-08-06T08:41:30;15.50;99.90
19555;DHT22;9924;50.828;6.440;2023-08-06T08:43:57;15.50;99.90
19555;DHT22;9924;50.828;6.440;2023-08-06T08:46:24;15.40;99.90
19555;DHT22;9924;50.828;6.440;2023-08-06T08:48:51;15.30;99.90
19555;DHT22;9924;50.828;6.440;2023-08-06T08:51:17;15.20;99.90
19555;DHT22;9924;50.828;6.440;2023-08-06T08:53:44;15.10;99.90
19555;DHT22;9924;50.828;6.440;2023-08-06T08:56:13;15.10;99.90
19555;DHT22;9924;50.828;6.440;2023-08-06T08:58:40;15.10;99.90
19555;DHT22;9924;50.828;6.440;2023-08-06T09:01:07;14.90;99.90
19555;DHT22;9924;50.828;6.440;2023-08-06T09:03:33;14.80;99.90
19555;DHT22;9924;50.828;6.440;2023-08-06T09:06:00;14.70;99.90
19555;DHT22;9924;50.828;6.440;2023-08-06T09:08:37;14.60;99.90
19555;DHT22;9924;50.828;6.440;2023-08-06T09:11:05;14.50;99.90
19555;DHT22;9924;50.828;6.440;2023-08-06T09:13:35;14.40;99.90
19555;DHT22;9924;50.828;6.440;2023-08-06T09:16:02;14.40;99.90
19555;DHT22;9924;50.828;6.440;2023-08-06T09:18:30;14.40;99.90
19555;DHT22;9924;50.828;6.440;2023-08-06T09:20:57;14.40;99.90
19555;DHT22;9924;50.828;6.440;2023-08-06T09:23:32;14.40;99.90
19555;DHT22;9924;50.828;6.440;2023-08-06T09:25:59;14.40;99.90
19555;DHT22;9924;50.828;6.440;2023-08-06T09:28:36;14.40;99.90
19555;DHT22;9924;50.828;6.440;2023-08-06T09:31:03;14.40;99.90
19555;DHT22;9924;50.828;6.440;2023-08-06T09:33:29;14.20;99.90
19555;DHT22;9924;50.828;6.440;2023-08-06T09:35:55;14.20;99.90
19555;DHT22;9924;50.828;6.440;2023-08-06T09:38:21;14.10;99.90
19555;DHT22;9924;50.828;6.440;2023-08-06T09:40:47;14.00;99.90
19555;DHT22;9924;50.828;6.440;2023-08-06T09:43:12;13.90;99.90
19555;DHT22;9924;50.828;6.440;2023-08-06T09:45:40;13.90;99.90
19555;DHT22;9924;50.828;6.440;2023-08-06T09:48:08;13.80;99.90
19555;DHT22;9924;50.828;6.440;2023-08-06T09:50:37;13.80;99.90
19555;DHT22;9924;50.828;6.440;2023-08-06T09:53:05;13.80;99.90
19555;DHT22;9924;50.828;6.440;2023-08-06T09:55:32;13.80;99.90
19555;DHT22;9924;50.828;6.440;2023-08-06T09:57:58;13.80;99.90
19555;DHT22;9924;50.828;6.440;2023-08-06T10:00:24;13.80;99.90
19555;DHT22;9924;50.828;6.440;2023-08-06T10:02:52;13.80;99.90
19555;DHT22;9924;50.828;6.440;2023-08-06T10:05:22;13.80;99.90
19555;DHT22;9924;50.828;6.440;2023-08-06T10:07:48;13.80;99.90
19555;DHT22;9924;50.828;6.440;2023-08-06T10:10:16;13.90;99.90
19555;DHT22;9924;50.828;6.440;2023-08-06T10:12:51;13.90;99.90
19555;DHT22;9924;50.828;6.440;2023-08-06T10:15:31;13.90;99.90
19555;DHT22;9924;50.828;6.440;2023-08-06T10:17:58;13.90;99.90
19555;DHT22;9924;50.828;6.440;2023-08-06T10:20:24;13.90;99.90
19555;DHT22;9924;50.828;6.440;2023-08-06T10:23:03;13.90;99.90
19555;DHT22;9924;50.828;6.440;2023-08-06T10:25:33;13.90;99.90
19555;DHT22;9924;50.828;6.440;2023-08-06T10:27:59;14.00;99.90
19555;DHT22;9924;50.828;6.440;2023-08-06T10:30:32;14.00;99.90
19555;DHT22;9924;50.828;6.440;2023-08-06T10:32:59;14.00;99.90
19555;DHT22;9924;50.828;6.440;2023-08-06T10:38:08;14.10;99.90
19555;DHT22;9924;50.828;6.440;2023-08-06T10:40:36;14.10;99.90
19555;DHT22;9924;50.828;6.440;2023-08-06T10:43:03;14.10;99.90
19555;DHT22;9924;50.828;6.440;2023-08-06T10:45:29;14.20;99.90
19555;DHT22;9924;50.828;6.440;2023-08-06T10:47:56;14.20;99.90
19555;DHT22;9924;50.828;6.440;2023-08-06T10:50:25;14.30;99.90
19555;DHT22;9924;50.828;6.440;2023-08-06T10:52:52;14.40;99.90
19555;DHT22;9924;50.828;6.440;2023-08-06T10:55:28;14.40;99.90
19555;DHT22;9924;50.828;6.440;2023-08-06T10:57:55;14.40;99.90
19555;DHT22;9924;50.828;6.440;2023-08-06T11:00:22;14.40;99.90
19555;DHT22;9924;50.828;6.440;2023-08-06T11:02:52;14.50;99.90
19555;DHT22;9924;50.828;6.440;2023-08-06T11:05:18;14.50;99.90
19555;DHT22;9924;50.828;6.440;2023-08-06T11:07:44;14.40;99.90
19555;DHT22;9924;50.828;6.440;2023-08-06T11:10:12;14.40;99.90
19555;DHT22;9924;50.828;6.440;2023-08-06T11:12:38;14.50;99.90
19555;DHT22;9924;50.828;6.440;2023-08-06T11:15:05;14.40;99.90
19555;DHT22;9924;50.828;6.440;2023-08-06T11:17:33;14.50;99.90
19555;DHT22;9924;50.828;6.440;2023-08-06T11:20:00;14.50;99.90
19555;DHT22;9924;50.828;6.440;2023-08-06T11:22:27;14.60;99.90
19555;DHT22;9924;50.828;6.440;2023-08-06T11:24:53;14.60;99.90
19555;DHT22;9924;50.828;6.440;2023-08-06T11:27:19;14.70;99.90
19555;DHT22;9924;50.828;6.440;2023-08-06T11:29:45;14.70;99.90
19555;DHT22;9924;50.828;6.440;2023-08-06T11:32:11;14.90;99.90
19555;DHT22;9924;50.828;6.440;2023-08-06T11:34:38;15.00;99.90
19555;DHT22;9924;50.828;6.440;2023-08-06T11:37:04;15.00;99.90
19555;DHT22;9924;50.828;6.440;2023-08-06T11:39:35;15.00;99.90
19555;DHT22;9924;50.828;6.440;2023-08-06T11:42:03;15.00;99.90
19555;DHT22;9924;50.828;6.440;2023-08-06T11:44:35;15.00;99.90
19555;DHT22;9924;50.828;6.440;2023-08-06T11:47:02;15.10;99.90
19555;DHT22;9924;50.828;6.440;2023-08-06T11:49:46;15.30;99.90
19555;DHT22;9924;50.828;6.440;2023-08-06T11:52:19;15.40;99.90
19555;DHT22;9924;50.828;6.440;2023-08-06T11:55:02;15.40;99.90
19555;DHT22;9924;50.828;6.440;2023-08-06T11:57:36;15.50;99.90
19555;DHT22;9924;50.828;6.440;2023-08-06T12:00:07;15.70;99.90
19555;DHT22;9924;50.828;6.440;2023-08-06T12:02:34;15.60;99.90
19555;DHT22;9924;50.828;6.440;2023-08-06T12:05:10;15.60;99.90
19555;DHT22;9924;50.828;6.440;2023-08-06T12:07:41;15.60;99.90
19555;DHT22;9924;50.828;6.440;2023-08-06T12:10:07;15.50;99.90
19555;DHT22;9924;50.828;6.440;2023-08-06T12:12:34;15.40;99.90
19555;DHT22;9924;50.828;6.440;2023-08-06T12:15:00;15.40;99.90
19555;DHT22;9924;50.828;6.440;2023-08-06T12:17:26;15.30;99.90
19555;DHT22;9924;50.828;6.440;2023-08-06T12:19:52;15.40;99.90
19555;DHT22;9924;50.828;6.440;2023-08-06T12:22:18;15.40;99.90
19555;DHT22;9924;50.828;6.440;2023-08-06T12:24:45;15.50;99.90
19555;DHT22;9924;50.828;6.440;2023-08-06T12:27:11;15.50;99.90
19555;DHT22;9924;50.828;6.440;2023-08-06T12:29:41;15.60;99.90
19555;DHT22;9924;50.828;6.440;2023-08-06T12:32:07;15.70;99.90
19555;DHT22;9924;50.828;6.440;2023-08-06T12:34:33;15.80;99.90
19555;DHT22;9924;50.828;6.440;2023-08-06T12:36:58;15.90;99.90
19555;DHT22;9924;50.828;6.440;2023-08-06T12:39:24;15.90;99.90
19555;DHT22;9924;50.828;6.440;2023-08-06T12:41:50;16.00;99.90
19555;DHT22;9924;50.828;6.440;2023-08-06T12:44:16;16.00;99.90
19555;DHT22;9924;50.828;6.440;2023-08-06T12:46:41;16.00;99.90
19555;DHT22;9924;50.828;6.440;2023-08-06T12:49:07;16.00;99.90
19555;DHT22;9924;50.828;6.440;2023-08-06T12:51:33;16.00;99.90
19555;DHT22;9924;50.828;6.440;2023-08-06T12:53:59;16.00;99.90
19555;DHT22;9924;50.828;6.440;2023-08-06T12:56:25;16.00;99.90
19555;DHT22;9924;50.828;6.440;2023-08-06T12:58:51;16.00;99.90
19555;DHT22;9924;50.828;6.440;2023-08-06T13:01:16;16.00;99.90
19555;DHT22;9924;50.828;6.440;2023-08-06T13:03:42;16.10;99.90
19555;DHT22;9924;50.828;6.440;2023-08-06T13:06:08;16.20;99.90
19555;DHT22;9924;50.828;6.440;2023-08-06T13:08:36;16.20;99.90
19555;DHT22;9924;50.828;6.440;2023-08-06T13:11:01;16.20;99.90
19555;DHT22;9924;50.828;6.440;2023-08-06T13:13:27;16.10;99.90
19555;DHT22;9924;50.828;6.440;2023-08-06T13:15:53;16.10;99.90
19555;DHT22;9924;50.828;6.440;2023-08-06T13:18:18;16.00;99.90
19555;DHT22;9924;50.828;6.440;2023-08-06T13:20:44;16.00;99.90
19555;DHT22;9924;50.828;6.440;2023-08-06T13:23:12;15.90;99.90
19555;DHT22;9924;50.828;6.440;2023-08-06T13:25:41;16.00;99.90
19555;DHT22;9924;50.828;6.440;2023-08-06T13:28:06;16.10;99.90
19555;DHT22;9924;50.828;6.440;2023-08-06T13:30:33;16.10;99.90
19555;DHT22;9924;50.828;6.440;2023-08-06T13:33:01;16.10;99.90
19555;DHT22;9924;50.828;6.440;2023-08-06T13:35:26;16.00;99.90
19555;DHT22;9924;50.828;6.440;2023-08-06T13:37:52;16.10;99.90
19555;DHT22;9924;50.828;6.440;2023-08-06T13:40:19;16.20;99.90
19555;DHT22;9924;50.828;6.440;2023-08-06T13:42:45;16.20;99.90
19555;DHT22;9924;50.828;6.440;2023-08-06T13:45:11;16.10;99.90
19555;DHT22;9924;50.828;6.440;2023-08-06T13:47:37;16.00;99.90
19555;DHT22;9924;50.828;6.440;2023-08-06T13:50:02;15.90;99.90
19555;DHT22;9924;50.828;6.440;2023-08-06T13:52:29;15.90;99.90
19555;DHT22;9924;50.828;6.440;2023-08-06T13:54:55;15.90;99.90
19555;DHT22;9924;50.828;6.440;2023-08-06T13:57:20;15.80;99.90
19555;DHT22;9924;50.828;6.440;2023-08-06T13:59:46;15.80;99.90
19555;DHT22;9924;50.828;6.440;2023-08-06T14:02:12;15.70;99.90
19555;DHT22;9924;50.828;6.440;2023-08-06T14:04:37;15.70;99.90
19555;DHT22;9924;50.828;6.440;2023-08-06T14:07:04;15.70;99.90
19555;DHT22;9924;50.828;6.440;2023-08-06T14:09:29;15.70;99.90
19555;DHT22;9924;50.828;6.440;2023-08-06T14:11:55;15.60;99.90
19555;DHT22;9924;50.828;6.440;2023-08-06T14:14:21;15.50;99.90
19555;DHT22;9924;50.828;6.440;2023-08-06T14:16:52;15.40;99.90
19555;DHT22;9924;50.828;6.440;2023-08-06T14:19:19;15.40;99.90
19555;DHT22;9924;50.828;6.440;2023-08-06T14:21:45;15.40;99.90
19555;DHT22;9924;50.828;6.440;2023-08-06T14:24:11;15.30;99.90
19555;DHT22;9924;50.828;6.440;2023-08-06T14:26:37;15.30;99.90
19555;DHT22;9924;50.828;6.440;2023-08-06T14:29:02;15.20;99.90
19555;DHT22;9924;50.828;6.440;2023-08-06T14:31:28;15.10;99.90
19555;DHT22;9924;50.828;6.440;2023-08-06T14:33:54;15.00;99.90
19555;DHT22;9924;50.828;6.440;2023-08-06T14:36:20;14.90;99.90
19555;DHT22;9924;50.828;6.440;2023-08-06T14:38:45;15.00;99.90
19555;DHT22;9924;50.828;6.440;2023-08-06T14:41:11;15.00;99.90
19555;DHT22;9924;50.828;6.440;2023-08-06T14:43:37;14.90;99.90
19555;DHT22;9924;50.828;6.440;2023-08-06T14:46:03;14.80;99.90
19555;DHT22;9924;50.828;6.440;2023-08-06T14:48:30;14.70;99.90
19555;DHT22;9924;50.828;6.440;2023-08-06T14:50:55;14.70;99.90
19555;DHT22;9924;50.828;6.440;2023-08-06T14:53:21;14.70;99.90
19555;DHT22;9924;50.828;6.440;2023-08-06T14:55:47;14.70;99.90
19555;DHT22;9924;50.828;6.440;2023-08-06T14:58:13;14.70;99.90
19555;DHT22;9924;50.828;6.440;2023-08-06T15:00:39;14.80;99.90
19555;DHT22;9924;50.828;6.440;2023-08-06T15:03:05;14.80;99.90
19555;DHT22;9924;50.828;6.440;2023-08-06T15:05:30;14.80;99.90
19555;DHT22;9924;50.828;6.440;2023-08-06T15:07:56;14.80;99.90
19555;DHT22;9924;50.828;6.440;2023-08-06T15:10:22;14.80;99.90
19555;DHT22;9924;50.828;6.440;2023-08-06T15:12:48;14.80;99.90
19555;DHT22;9924;50.828;6.440;2023-08-06T15:15:14;14.90;99.90
19555;DHT22;9924;50.828;6.440;2023-08-06T15:17:40;14.90;99.90
19555;DHT22;9924;50.828;6.440;2023-08-06T15:20:06;14.90;99.90
19555;DHT22;9924;50.828;6.440;2023-08-06T15:22:32;14.90;99.90
19555;DHT22;9924;50.828;6.440;2023-08-06T15:25:01;14.90;99.90
19555;DHT22;9924;50.828;6.440;2023-08-06T15:27:27;14.90;99.90
19555;DHT22;9924;50.828;6.440;2023-08-06T15:29:53;14.80;99.90
19555;DHT22;9924;50.828;6.440;2023-08-06T15:32:19;14.80;99.90
19555;DHT22;9924;50.828;6.440;2023-08-06T15:34:46;14.80;99.90
19555;DHT22;9924;50.828;6.440;2023-08-06T15:37:13;14.80;99.90
19555;DHT22;9924;50.828;6.440;2023-08-06T15:39:38;14.80;99.90
19555;DHT22;9924;50.828;6.440;2023-08-06T15:42:04;14.80;99.90
19555;DHT22;9924;50.828;6.440;2023-08-06T15:44:30;14.80;99.90
19555;DHT22;9924;50.828;6.440;2023-08-06T15:46:56;14.80;99.90
19555;DHT22;9924;50.828;6.440;2023-08-06T15:49:22;14.90;99.90
19555;DHT22;9924;50.828;6.440;2023-08-06T15:51:48;14.90;99.90